Time;durP1;ratioP1;P1;durP2;ratioP2;P2;SDS_P1;SDS_P2;PMS_P1;PMS_P2;Temp;Humidity;BMP_temperature;BMP_pressure;BME280_temperature;BME280_humidity;BME280_pressure;Samples;Min_cycle;Max_cycle;Signal;HPM_P1;HPM_P2
2021/04/10 00:03:21;;;;;;;0.68;0.20;;;7.00;99.90;;;;;;10485781;28;20077;-48
2021/04/10 00:08:42;;;;;;;1.15;0.40;;;6.90;99.90;;;;;;10484904;28;20045;-48
2021/04/10 00:14:07;;;;;;;3.50;1.00;;;6.90;99.90;;;;;;10474757;28;20040;-48
2021/04/10 00:19:28;;;;;;;9.93;0.68;;;6.90;99.90;;;;;;10482808;28;20127;-48
2021/04/10 00:24:49;;;;;;;1.10;0.30;;;7.00;99.90;;;;;;10477366;28;20127;-48
2021/04/10 00:30:13;;;;;;;4.15;0.30;;;7.00;99.90;;;;;;10484894;28;20028;-48
2021/04/10 00:35:36;;;;;;;3.10;0.52;;;6.90;99.90;;;;;;10482224;28;20062;-48
2021/04/10 00:40:58;;;;;;;3.20;1.27;;;6.90;99.90;;;;;;10480512;28;20126;-49
2021/04/10 00:46:19;;;;;;;3.60;0.90;;;6.90;99.90;;;;;;10468206;28;20115;-48
2021/04/10 00:51:40;;;;;;;0.88;0.30;;;6.90;99.90;;;;;;10472339;28;20046;-49
2021/04/10 00:57:01;;;;;;;0.77;0.13;;;6.90;99.90;;;;;;10468015;28;20048;-48
2021/04/10 01:02:23;;;;;;;2.15;0.55;;;6.80;99.90;;;;;;10481820;28;20044;-49
2021/04/10 01:07:44;;;;;;;5.05;1.33;;;6.80;99.90;;;;;;10479270;28;20040;-48
2021/04/10 01:13:35;;;;;;;1.80;0.30;;;6.80;99.90;;;;;;10485373;28;20753;-48
2021/04/10 01:18:56;;;;;;;1.17;0.52;;;6.80;99.90;;;;;;10468685;28;20052;-48
2021/04/10 01:24:20;;;;;;;1.70;0.80;;;6.80;99.90;;;;;;10480673;28;20707;-48
2021/04/10 01:29:48;;;;;;;1.55;0.40;;;6.80;99.90;;;;;;10473232;28;20610;-49
2021/04/10 01:35:15;;;;;;;0.95;0.25;;;6.80;99.90;;;;;;10479511;28;20119;-48
2021/04/10 01:40:36;;;;;;;1.40;0.40;;;6.80;99.90;;;;;;10478322;28;20556;-48
2021/04/10 01:45:58;;;;;;;1.63;0.50;;;6.70;99.90;;;;;;10481032;28;20126;-49
2021/04/10 01:51:20;;;;;;;1.08;0.30;;;6.70;99.90;;;;;;10482326;28;20039;-48
2021/04/10 01:56:44;;;;;;;2.83;0.30;;;6.70;99.90;;;;;;10481812;28;20036;-49
2021/04/10 02:02:06;;;;;;;0.80;0.30;;;6.70;99.90;;;;;;10462319;28;20089;-48
2021/04/10 02:07:27;;;;;;;1.48;0.40;;;6.70;99.90;;;;;;10480631;28;20045;-48
2021/04/10 02:12:50;;;;;;;0.85;0.32;;;6.80;99.90;;;;;;10469705;28;20340;-49
2021/04/10 02:18:13;;;;;;;1.27;0.38;;;6.70;99.90;;;;;;10478348;28;20041;-48
2021/04/10 02:23:41;;;;;;;4.65;0.63;;;6.70;99.90;;;;;;10471491;28;20044;-48
2021/04/10 02:29:03;;;;;;;4.88;0.40;;;6.60;99.90;;;;;;10477843;28;20085;-49
2021/04/10 02:34:27;;;;;;;8.75;2.03;;;6.70;99.90;;;;;;10478821;28;20522;-49
2021/04/10 02:39:49;;;;;;;0.88;0.40;;;6.70;99.90;;;;;;10478636;28;20044;-49
2021/04/10 02:45:12;;;;;;;11.20;0.88;;;6.70;99.90;;;;;;10482521;28;20043;-49
2021/04/10 02:50:35;;;;;;;1.35;0.57;;;6.60;99.90;;;;;;10482080;28;20051;-49
2021/04/10 02:55:58;;;;;;;2.55;0.77;;;6.60;99.90;;;;;;10478095;28;20036;-49
2021/04/10 03:01:20;;;;;;;1.13;0.20;;;6.60;99.90;;;;;;10491770;28;20032;-49
2021/04/10 03:06:42;;;;;;;6.72;0.35;;;6.60;99.90;;;;;;10480944;28;20599;-49
2021/04/10 03:12:03;;;;;;;1.65;0.30;;;6.60;99.90;;;;;;10488818;28;20040;-48
2021/04/10 03:17:25;;;;;;;1.25;0.40;;;6.60;99.90;;;;;;10489168;28;20067;-48
2021/04/10 03:22:48;;;;;;;2.97;0.68;;;6.50;99.90;;;;;;10491841;28;20037;-48
2021/04/10 03:28:12;;;;;;;0.38;0.20;;;6.60;99.90;;;;;;10488589;28;20032;-49
2021/04/10 03:33:34;;;;;;;6.75;0.35;;;6.60;99.90;;;;;;10488224;28;20102;-48
2021/04/10 03:38:55;;;;;;;1.25;0.40;;;6.60;99.90;;;;;;10486187;28;20044;-48
2021/04/10 03:44:16;;;;;;;4.32;0.57;;;6.50;99.90;;;;;;10485273;28;20408;-48
2021/04/10 03:49:37;;;;;;;4.00;0.40;;;6.50;99.90;;;;;;10479690;28;20044;-48
2021/04/10 03:54:58;;;;;;;4.78;1.10;;;6.40;99.90;;;;;;10480007;28;20032;-49
2021/04/10 04:00:20;;;;;;;2.55;0.38;;;6.40;99.90;;;;;;10474186;28;20076;-49
2021/04/10 04:05:41;;;;;;;2.75;0.52;;;6.40;99.90;;;;;;10481704;28;20048;-48
2021/04/10 04:11:02;;;;;;;2.47;0.45;;;6.50;99.90;;;;;;10476929;28;20040;-48
2021/04/10 04:16:23;;;;;;;1.40;0.35;;;6.40;99.90;;;;;;10481609;28;20106;-48
2021/04/10 04:21:44;;;;;;;0.77;0.28;;;6.40;99.90;;;;;;10481190;28;20055;-48
2021/04/10 04:27:05;;;;;;;2.10;0.40;;;6.30;99.90;;;;;;10479581;28;20044;-49
2021/04/10 04:32:26;;;;;;;3.85;0.40;;;6.30;99.90;;;;;;10483733;28;20036;-49
2021/04/10 04:37:47;;;;;;;15.10;1.35;;;6.30;99.90;;;;;;10485500;28;20052;-48
2021/04/10 04:43:08;;;;;;;1.20;0.30;;;6.30;99.90;;;;;;10481804;28;20037;-48
2021/04/10 04:48:29;;;;;;;2.92;0.40;;;6.30;99.90;;;;;;10483504;28;20094;-49
2021/04/10 04:53:50;;;;;;;1.48;0.40;;;6.40;99.90;;;;;;10481043;28;20372;-48
2021/04/10 04:59:11;;;;;;;1.13;0.25;;;6.40;99.90;;;;;;10480581;28;20496;-48
2021/04/10 05:04:32;;;;;;;4.68;0.60;;;6.30;99.90;;;;;;10476097;28;20079;-48
2021/04/10 05:09:53;;;;;;;1.63;0.20;;;6.30;99.90;;;;;;10482084;28;20364;-48
2021/04/10 05:15:14;;;;;;;3.00;0.90;;;6.20;99.90;;;;;;10487145;28;20047;-48
2021/04/10 05:20:35;;;;;;;0.63;0.30;;;6.20;99.90;;;;;;10478534;28;20658;-48
2021/04/10 05:25:56;;;;;;;1.75;0.32;;;6.30;99.90;;;;;;10482559;28;20472;-48
2021/04/10 05:31:17;;;;;;;0.82;0.20;;;6.30;99.90;;;;;;10464723;28;20040;-47
2021/04/10 05:36:38;;;;;;;3.67;0.80;;;6.30;99.90;;;;;;10481524;28;20531;-47
2021/04/10 05:41:59;;;;;;;1.40;0.43;;;6.30;99.90;;;;;;10471157;28;20051;-47
2021/04/10 05:47:20;;;;;;;1.30;0.93;;;6.30;99.90;;;;;;10480884;28;20395;-47
2021/04/10 05:52:41;;;;;;;6.10;0.70;;;6.20;99.90;;;;;;10483945;28;20051;-47
2021/04/10 05:58:02;;;;;;;0.73;0.28;;;6.30;99.90;;;;;;10481038;28;20044;-47
2021/04/10 06:03:23;;;;;;;1.35;0.30;;;6.20;99.90;;;;;;10479791;28;20434;-47
2021/04/10 06:08:44;;;;;;;0.75;0.22;;;6.30;99.90;;;;;;10481646;28;20264;-47
2021/04/10 06:14:05;;;;;;;4.93;0.60;;;6.30;99.90;;;;;;10474247;28;20047;-47
2021/04/10 06:19:26;;;;;;;1.60;0.80;;;6.40;99.90;;;;;;10484327;28;20411;-47
2021/04/10 06:24:47;;;;;;;7.18;0.40;;;6.40;99.90;;;;;;10468643;28;20032;-47
2021/04/10 06:30:09;;;;;;;1.65;0.63;;;6.40;99.90;;;;;;10475071;28;20098;-47
2021/04/10 06:35:30;;;;;;;1.30;0.82;;;6.50;99.90;;;;;;10483962;28;20658;-47
2021/04/10 06:40:51;;;;;;;1.83;0.65;;;6.60;99.90;;;;;;10473058;28;20063;-47
2021/04/10 06:46:12;;;;;;;0.77;0.30;;;6.70;99.90;;;;;;10481455;28;20106;-46
2021/04/10 06:51:33;;;;;;;2.35;0.43;;;6.80;99.90;;;;;;10491936;28;20329;-47
2021/04/10 06:57:02;;;;;;;4.35;0.88;;;6.70;99.90;;;;;;10487077;28;20040;-47
2021/04/10 07:02:23;;;;;;;1.43;0.30;;;6.80;99.90;;;;;;10484019;28;20159;-46
2021/04/10 07:07:44;;;;;;;3.35;0.85;;;6.90;99.90;;;;;;10483325;28;20044;-47
2021/04/10 07:13:05;;;;;;;1.55;0.70;;;6.90;99.90;;;;;;10468842;28;20076;-47
2021/04/10 07:18:30;;;;;;;1.30;0.50;;;7.00;99.90;;;;;;10467800;28;20052;-47
2021/04/10 07:23:53;;;;;;;0.73;0.30;;;7.10;99.90;;;;;;10482341;28;22626;-47
2021/04/10 07:29:43;;;;;;;0.95;0.10;;;7.20;99.90;;;;;;10477538;28;20037;-47
2021/04/10 07:35:09;;;;;;;0.47;0.22;;;7.30;99.90;;;;;;10488004;28;20540;-47
2021/04/10 07:40:32;;;;;;;1.42;0.45;;;7.40;99.90;;;;;;10496221;28;20040;-47
2021/04/10 07:46:15;;;;;;;3.42;0.65;;;7.50;99.90;;;;;;10496074;28;20028;-47
2021/04/10 07:51:53;;;;;;;1.92;0.40;;;7.70;99.90;;;;;;10491164;28;20049;-47
2021/04/10 07:57:15;;;;;;;1.70;0.38;;;7.80;99.90;;;;;;10490431;28;20040;-47
2021/04/10 08:02:35;;;;;;;0.93;0.40;;;7.70;99.90;;;;;;10491263;28;20036;-47
2021/04/10 08:07:56;;;;;;;1.35;0.38;;;7.80;99.90;;;;;;10494145;28;20428;-47
2021/04/10 08:13:17;;;;;;;1.08;0.30;;;7.70;99.90;;;;;;10496173;28;20097;-47
2021/04/10 08:18:50;;;;;;;1.85;0.70;;;7.80;99.90;;;;;;10485796;28;20135;-47
2021/04/10 08:24:25;;;;;;;1.15;0.55;;;7.70;99.90;;;;;;10476508;28;20033;-47
2021/04/10 08:29:46;;;;;;;0.30;0.10;;;7.80;99.90;;;;;;10491428;28;20032;-47
2021/04/10 08:35:07;;;;;;;1.08;0.43;;;7.90;99.90;;;;;;10504985;28;20408;-47
2021/04/10 08:40:30;;;;;;;0.75;0.30;;;8.00;99.90;;;;;;10490182;28;20129;-47
2021/04/10 08:45:54;;;;;;;1.23;0.40;;;8.00;99.90;;;;;;10495503;28;20126;-47
2021/04/10 08:51:16;;;;;;;3.00;0.35;;;8.10;99.90;;;;;;10491431;28;20033;-47
2021/04/10 08:56:38;;;;;;;2.08;0.40;;;8.20;99.90;;;;;;10500979;28;20487;-47
2021/04/10 09:02:09;;;;;;;0.93;0.60;;;8.20;99.90;;;;;;10485890;28;20047;-47
2021/04/10 09:07:53;;;;;;;1.70;0.30;;;8.20;99.90;;;;;;10477626;28;20101;-47
2021/04/10 09:13:17;;;;;;;1.60;0.45;;;8.10;99.90;;;;;;10482910;28;20044;-47
2021/04/10 09:18:38;;;;;;;7.50;0.50;;;8.30;99.90;;;;;;10489582;28;20408;-47
2021/04/10 09:23:59;;;;;;;1.02;0.25;;;8.30;99.90;;;;;;10477998;28;20048;-47
2021/04/10 09:29:20;;;;;;;3.58;0.77;;;8.30;99.90;;;;;;10491698;28;20051;-47
2021/04/10 09:34:53;;;;;;;3.33;0.30;;;8.30;99.90;;;;;;10481142;28;20444;-47
2021/04/10 09:40:21;;;;;;;2.55;0.30;;;8.50;99.90;;;;;;10493391;28;20054;-47
2021/04/10 09:45:42;;;;;;;1.50;0.25;;;8.60;99.90;;;;;;10485121;28;20043;-47
2021/04/10 09:51:04;;;;;;;3.70;0.85;;;8.70;99.90;;;;;;10487128;28;20071;-47
2021/04/10 09:56:31;;;;;;;1.25;0.30;;;8.70;99.90;;;;;;10495661;28;20089;-48
2021/04/10 10:01:52;;;;;;;0.98;0.35;;;8.60;99.90;;;;;;10479234;28;20037;-47
2021/04/10 10:07:14;;;;;;;0.75;0.25;;;8.60;99.90;;;;;;10482388;28;20040;-47
2021/04/10 10:12:35;;;;;;;1.88;0.32;;;8.70;99.90;;;;;;10485780;28;20058;-47
2021/04/10 10:17:56;;;;;;;0.70;0.20;;;8.80;99.90;;;;;;10482698;28;20539;-47
2021/04/10 10:23:17;;;;;;;0.40;0.10;;;9.00;99.90;;;;;;10483931;28;20040;-47
2021/04/10 10:28:41;;;;;;;1.63;0.47;;;8.90;99.90;;;;;;10483490;28;20052;-47
2021/04/10 10:34:05;;;;;;;5.57;1.88;;;9.10;99.90;;;;;;10479269;28;20033;-47
2021/04/10 10:39:31;;;;;;;1.45;0.57;;;9.20;99.90;;;;;;10482524;28;20465;-47
2021/04/10 10:44:52;;;;;;;1.40;0.98;;;9.10;99.90;;;;;;10479122;28;20503;-47
2021/04/10 10:50:13;;;;;;;3.25;0.38;;;9.20;99.90;;;;;;10471332;28;20060;-46
2021/04/10 10:56:04;;;;;;;3.30;0.32;;;9.00;99.90;;;;;;10482914;28;20039;-47
2021/04/10 11:01:25;;;;;;;3.33;1.65;;;9.00;99.90;;;;;;10469754;28;20303;-47
2021/04/10 11:06:48;;;;;;;0.82;0.22;;;8.90;99.90;;;;;;10462140;28;20049;-46
2021/04/10 11:12:16;;;;;;;0.95;0.20;;;8.80;99.90;;;;;;10476632;28;20046;-47
2021/04/10 11:17:39;;;;;;;0.73;0.25;;;8.60;99.90;;;;;;10488750;28;20400;-46
2021/04/10 11:23:10;;;;;;;3.03;1.02;;;8.60;99.90;;;;;;10487005;28;20722;-46
2021/04/10 11:28:33;;;;;;;4.05;0.22;;;8.70;99.90;;;;;;10489314;28;20048;-46
2021/04/10 11:33:54;;;;;;;6.63;0.73;;;8.80;99.90;;;;;;10487643;28;20036;-46
2021/04/10 11:39:14;;;;;;;4.88;0.73;;;8.70;99.90;;;;;;10487899;28;20502;-46
2021/04/10 11:44:38;;;;;;;1.13;0.50;;;8.70;99.90;;;;;;10479342;28;20120;-46
2021/04/10 11:50:16;;;;;;;2.63;0.47;;;8.80;99.90;;;;;;10478262;28;20134;-46
2021/04/10 11:55:37;;;;;;;1.80;0.32;;;8.70;99.90;;;;;;10478470;28;20660;-46
2021/04/10 12:01:24;;;;;;;2.83;0.20;;;8.60;99.90;;;;;;10477353;28;20094;-46
2021/04/10 12:06:45;;;;;;;1.15;0.57;;;8.70;99.90;;;;;;10479580;28;20135;-47
2021/04/10 12:12:09;;;;;;;1.00;0.25;;;8.70;99.90;;;;;;10488308;28;20636;-46
2021/04/10 12:17:29;;;;;;;4.95;0.30;;;8.70;99.90;;;;;;10486833;28;20032;-46
2021/04/10 12:22:52;;;;;;;4.70;0.30;;;8.80;99.90;;;;;;10485652;28;20050;-46
2021/04/10 12:28:14;;;;;;;0.95;0.28;;;8.70;99.90;;;;;;10477248;28;20439;-46
2021/04/10 12:33:39;;;;;;;1.52;0.30;;;8.60;99.90;;;;;;10489820;28;20047;-46
2021/04/10 12:39:01;;;;;;;2.33;0.55;;;8.40;99.90;;;;;;10491014;28;20121;-46
2021/04/10 12:44:22;;;;;;;0.90;0.30;;;8.40;99.90;;;;;;10479015;28;20044;-46
2021/04/10 12:49:43;;;;;;;2.03;0.47;;;8.30;99.90;;;;;;10483960;28;20395;-46
2021/04/10 12:55:06;;;;;;;2.75;0.30;;;8.20;99.90;;;;;;10487546;28;20044;-46
2021/04/10 13:00:27;;;;;;;1.15;0.50;;;8.00;99.90;;;;;;10481709;28;20032;-46
2021/04/10 13:05:48;;;;;;;2.67;1.30;;;8.00;99.90;;;;;;10468726;28;20098;-46
2021/04/10 13:11:09;;;;;;;1.38;0.50;;;7.90;99.90;;;;;;10475876;28;20568;-46
2021/04/10 13:16:32;;;;;;;2.20;0.55;;;7.80;99.90;;;;;;10482879;28;20061;-47
2021/04/10 13:21:53;;;;;;;2.38;0.75;;;7.60;99.90;;;;;;10474093;28;20067;-46
2021/04/10 13:27:14;;;;;;;1.42;0.40;;;7.50;99.90;;;;;;10480016;28;20036;-46
2021/04/10 13:32:36;;;;;;;1.88;0.77;;;7.50;99.90;;;;;;10472470;28;20119;-46
2021/04/10 13:37:57;;;;;;;3.88;1.42;;;7.40;99.90;;;;;;10480342;28;20476;-46
2021/04/10 13:43:18;;;;;;;5.03;0.85;;;7.30;99.90;;;;;;10480940;28;20032;-46
2021/04/10 13:48:39;;;;;;;2.53;0.98;;;7.30;99.90;;;;;;10475699;28;20040;-46
2021/04/10 13:54:00;;;;;;;1.02;0.40;;;7.40;99.90;;;;;;10485562;28;20033;-47
2021/04/10 13:59:21;;;;;;;1.17;0.47;;;7.30;99.90;;;;;;10474615;28;20044;-46
2021/04/10 14:04:57;;;;;;;4.82;1.42;;;7.30;99.90;;;;;;10450297;28;20928;-46
2021/04/10 14:10:21;;;;;;;3.97;1.10;;;7.20;99.90;;;;;;10377070;28;20077;-46
2021/04/10 14:15:43;;;;;;;4.32;0.85;;;7.10;99.90;;;;;;10385250;28;20029;-46
2021/04/10 14:21:07;;;;;;;2.03;0.90;;;7.20;99.90;;;;;;10378069;28;20044;-46
2021/04/10 14:26:28;;;;;;;5.32;1.17;;;7.20;99.90;;;;;;10375409;28;20038;-46
2021/04/10 14:31:49;;;;;;;3.53;1.45;;;7.00;99.90;;;;;;10385985;28;20041;-46
2021/04/10 14:37:10;;;;;;;3.80;0.80;;;7.00;99.90;;;;;;10388821;28;20404;-47
2021/04/10 14:42:32;;;;;;;3.65;1.08;;;6.90;99.90;;;;;;10385120;28;20049;-46
2021/04/10 14:47:52;;;;;;;6.50;0.77;;;6.80;99.90;;;;;;10384755;28;20427;-47
2021/04/10 14:53:26;;;;;;;6.13;1.13;;;6.70;99.90;;;;;;10389357;28;20761;-46
2021/04/10 14:58:46;;;;;;;6.85;1.23;;;6.70;99.90;;;;;;10381393;28;22193;-47
2021/04/10 15:04:07;;;;;;;3.88;1.50;;;6.70;99.90;;;;;;10367248;28;20269;-46
2021/04/10 15:09:28;;;;;;;4.53;1.80;;;6.70;99.90;;;;;;10417430;28;20052;-47
2021/04/10 15:14:49;;;;;;;2.50;1.45;;;6.60;99.90;;;;;;10417260;28;20041;-47
2021/04/10 15:20:11;;;;;;;8.25;1.75;;;6.60;99.90;;;;;;10422487;28;20051;-47
2021/04/10 15:25:35;;;;;;;4.28;1.60;;;6.60;99.90;;;;;;10420940;28;20598;-47
2021/04/10 15:31:03;;;;;;;3.40;1.45;;;6.40;99.90;;;;;;10423669;28;20036;-46
2021/04/10 15:36:28;;;;;;;7.28;2.20;;;6.40;99.90;;;;;;10423465;28;20032;-47
2021/04/10 15:41:49;;;;;;;5.68;1.65;;;6.30;99.90;;;;;;10421561;28;20509;-48
2021/04/10 15:47:10;;;;;;;3.38;1.55;;;6.20;99.90;;;;;;10420845;28;20110;-47
2021/04/10 15:52:32;;;;;;;4.47;1.42;;;6.20;99.90;;;;;;10423753;28;20037;-47
2021/04/10 15:57:52;;;;;;;2.72;1.33;;;6.20;99.90;;;;;;10423342;28;20045;-48
2021/04/10 16:03:14;;;;;;;3.78;1.42;;;6.10;99.90;;;;;;10424171;28;20021;-48
2021/04/10 16:08:35;;;;;;;3.47;1.48;;;6.00;99.90;;;;;;10425965;28;20048;-47
2021/04/10 16:13:56;;;;;;;3.13;1.20;;;6.10;99.90;;;;;;10410275;28;20044;-48
2021/04/10 16:19:17;;;;;;;4.93;2.10;;;6.10;99.90;;;;;;10425219;28;20033;-47
2021/04/10 16:24:38;;;;;;;2.47;1.25;;;6.00;99.90;;;;;;10421293;28;20044;-47
2021/04/10 16:29:59;;;;;;;5.63;1.75;;;5.90;99.90;;;;;;10424670;28;20591;-48
2021/04/10 16:35:21;;;;;;;3.47;1.55;;;5.80;99.90;;;;;;10419680;28;20033;-47
2021/04/10 16:40:42;;;;;;;3.53;1.42;;;5.80;99.90;;;;;;10419479;28;20439;-48
2021/04/10 16:46:03;;;;;;;4.13;1.50;;;5.70;99.90;;;;;;10421094;28;20075;-48
2021/04/10 16:51:29;;;;;;;4.72;1.05;;;5.60;99.90;;;;;;10420709;28;20198;-47
2021/04/10 16:56:50;;;;;;;4.13;1.10;;;5.50;99.90;;;;;;10421492;28;20028;-47
2021/04/10 17:02:14;;;;;;;2.63;0.98;;;5.50;99.90;;;;;;10420948;28;20079;-47
2021/04/10 17:07:35;;;;;;;2.42;0.85;;;5.40;99.90;;;;;;10419879;28;20087;-47
2021/04/10 17:12:56;;;;;;;2.95;1.52;;;5.30;99.90;;;;;;10425378;28;20036;-48
2021/04/10 17:18:17;;;;;;;3.38;0.95;;;5.30;99.90;;;;;;10420241;28;20075;-48
2021/04/10 17:23:39;;;;;;;1.67;0.60;;;5.30;99.90;;;;;;10417157;28;20029;-48
2021/04/10 17:29:00;;;;;;;5.88;1.98;;;5.20;99.90;;;;;;10418378;28;20036;-47
2021/04/10 17:34:22;;;;;;;2.03;1.02;;;5.20;99.90;;;;;;10418721;28;20205;-47
2021/04/10 17:39:43;;;;;;;1.80;0.90;;;5.10;99.90;;;;;;10414416;28;21378;-47
2021/04/10 17:45:10;;;;;;;1.50;0.70;;;5.00;99.90;;;;;;10416166;28;20111;-48
2021/04/10 17:50:31;;;;;;;2.05;1.02;;;5.00;99.90;;;;;;10404084;28;20040;-48
2021/04/10 17:55:56;;;;;;;3.78;0.65;;;5.00;99.90;;;;;;10417088;28;20041;-48
2021/04/10 18:01:21;;;;;;;4.50;1.77;;;5.10;99.90;;;;;;10406447;28;22145;-48
2021/04/10 18:06:42;;;;;;;4.00;1.30;;;5.00;99.90;;;;;;10415903;28;20048;-47
2021/04/10 18:12:06;;;;;;;1.90;0.85;;;4.80;99.90;;;;;;10419051;28;20036;-48
2021/04/10 18:17:27;;;;;;;3.13;1.00;;;4.80;99.90;;;;;;10420814;28;20692;-48
2021/04/10 18:22:47;;;;;;;2.42;0.80;;;4.80;99.90;;;;;;10416762;28;20040;-47
2021/04/10 18:28:08;;;;;;;4.47;1.10;;;4.70;99.90;;;;;;10416572;28;20041;-47
2021/04/10 18:33:37;;;;;;;1.23;0.77;;;4.60;99.90;;;;;;10416113;28;20033;-48
2021/04/10 18:38:58;;;;;;;3.53;1.53;;;4.60;99.90;;;;;;10417125;28;20639;-48
2021/04/10 18:44:19;;;;;;;2.50;0.73;;;4.60;99.90;;;;;;10422437;28;20237;-47
2021/04/10 18:49:41;;;;;;;3.85;1.38;;;4.60;99.90;;;;;;10419914;28;20041;-48
2021/04/10 18:55:04;;;;;;;2.88;1.25;;;4.60;99.90;;;;;;10419805;28;20068;-48
2021/04/10 19:00:26;;;;;;;1.95;0.70;;;4.60;99.90;;;;;;10417445;28;20075;-47
2021/04/10 19:05:55;;;;;;;1.73;1.05;;;4.60;99.90;;;;;;10415362;28;20140;-47
2021/04/10 19:11:16;;;;;;;2.42;0.80;;;4.50;99.90;;;;;;10417079;28;20193;-48
2021/04/10 19:16:37;;;;;;;3.72;1.52;;;4.50;99.90;;;;;;10424275;28;20037;-47
2021/04/10 19:21:58;;;;;;;3.17;0.85;;;4.50;99.90;;;;;;10429051;28;20044;-47
2021/04/10 19:27:20;;;;;;;1.42;0.98;;;4.50;99.90;;;;;;10422103;28;20517;-48
2021/04/10 19:32:41;;;;;;;2.22;0.60;;;4.50;99.90;;;;;;10430356;28;20492;-47
2021/04/10 19:38:02;;;;;;;2.15;0.90;;;4.50;99.90;;;;;;10425805;28;20451;-48
2021/04/10 19:43:26;;;;;;;3.33;1.27;;;4.40;99.90;;;;;;10428991;28;20045;-48
2021/04/10 19:48:49;;;;;;;2.90;1.02;;;4.50;99.90;;;;;;10421131;28;20079;-47
2021/04/10 19:54:11;;;;;;;3.40;1.05;;;4.40;99.90;;;;;;10418070;28;20028;-48
2021/04/10 19:59:32;;;;;;;2.22;0.93;;;4.40;99.90;;;;;;10420007;28;20044;-47
2021/04/10 20:04:52;;;;;;;2.15;1.13;;;4.30;99.90;;;;;;10425685;28;20113;-48
2021/04/10 20:10:13;;;;;;;1.98;0.70;;;4.40;99.90;;;;;;10422986;28;20045;-48
2021/04/10 20:15:35;;;;;;;1.25;0.70;;;4.30;99.90;;;;;;10427786;28;20151;-48
2021/04/10 20:20:56;;;;;;;3.65;0.73;;;4.30;99.90;;;;;;10414100;28;20639;-48
2021/04/10 20:26:21;;;;;;;2.10;0.75;;;4.30;99.90;;;;;;10420833;28;20151;-48
2021/04/10 20:31:43;;;;;;;2.53;0.68;;;4.20;99.90;;;;;;10423498;28;20037;-48
2021/04/10 20:37:04;;;;;;;2.10;1.08;;;4.20;99.90;;;;;;10418642;28;20033;-48
2021/04/10 20:42:25;;;;;;;1.77;0.85;;;4.10;99.90;;;;;;10423917;28;20036;-48
2021/04/10 20:47:46;;;;;;;3.67;1.00;;;4.00;99.90;;;;;;10438581;28;20094;-48
2021/04/10 20:53:07;;;;;;;1.10;0.40;;;4.00;99.90;;;;;;10439856;28;20143;-48
2021/04/10 20:58:28;;;;;;;2.20;0.85;;;4.00;99.90;;;;;;10425989;28;20138;-48
2021/04/10 21:03:50;;;;;;;0.80;0.40;;;3.90;99.90;;;;;;10420889;28;20045;-47
2021/04/10 21:09:11;;;;;;;3.03;0.68;;;3.90;99.90;;;;;;10443648;28;20057;-48
2021/04/10 21:14:34;;;;;;;1.27;0.43;;;3.80;99.90;;;;;;10439226;28;20099;-48
2021/04/10 21:19:55;;;;;;;2.17;0.93;;;3.90;99.90;;;;;;10439327;28;20044;-48
2021/04/10 21:25:16;;;;;;;1.90;0.70;;;3.80;99.90;;;;;;10441079;28;20035;-48
2021/04/10 21:30:37;;;;;;;1.58;0.52;;;3.80;99.90;;;;;;10437417;28;20524;-47
2021/04/10 21:35:58;;;;;;;2.05;0.52;;;3.80;99.90;;;;;;10439280;28;20056;-48
2021/04/10 21:41:22;;;;;;;1.00;0.28;;;3.70;99.90;;;;;;10439663;28;20700;-48
2021/04/10 21:46:43;;;;;;;1.50;0.63;;;3.60;99.90;;;;;;10439137;28;20146;-48
2021/04/10 21:52:04;;;;;;;1.08;0.50;;;3.70;99.90;;;;;;10437180;28;20447;-48
2021/04/10 21:57:26;;;;;;;1.35;0.50;;;3.60;99.90;;;;;;10442120;28;20427;-48
2021/04/10 22:02:47;;;;;;;1.67;0.60;;;3.60;99.90;;;;;;10437439;28;20333;-47
2021/04/10 22:08:08;;;;;;;0.90;0.35;;;3.60;99.90;;;;;;10451207;28;20400;-48
2021/04/10 22:13:31;;;;;;;1.15;0.30;;;3.60;99.90;;;;;;10443877;28;20167;-47
2021/04/10 22:18:52;;;;;;;1.65;0.68;;;3.60;99.90;;;;;;10445820;28;20040;-47
2021/04/10 22:24:14;;;;;;;1.83;0.88;;;3.60;99.90;;;;;;10445554;28;20090;-48
2021/04/10 22:29:35;;;;;;;2.92;0.85;;;3.60;99.90;;;;;;10450400;28;20638;-48
2021/04/10 22:34:56;;;;;;;1.33;0.52;;;3.70;99.90;;;;;;10445599;28;20432;-48
2021/04/10 22:40:22;;;;;;;2.67;0.93;;;3.70;99.90;;;;;;10440038;28;20045;-48
2021/04/10 22:45:44;;;;;;;1.70;0.77;;;3.60;99.90;;;;;;10439998;28;20557;-48
2021/04/10 22:51:05;;;;;;;1.23;0.30;;;3.60;99.90;;;;;;10442751;28;20048;-48
2021/04/10 22:56:26;;;;;;;1.58;0.82;;;3.60;99.90;;;;;;10448812;28;20472;-48
2021/04/10 23:01:49;;;;;;;1.08;0.38;;;3.60;99.90;;;;;;10435590;28;20420;-48
2021/04/10 23:07:10;;;;;;;1.73;0.30;;;3.60;99.90;;;;;;10455106;28;20122;-48
2021/04/10 23:12:31;;;;;;;0.52;0.43;;;3.70;99.90;;;;;;10442113;28;20179;-48
2021/04/10 23:17:52;;;;;;;1.45;0.40;;;3.70;99.90;;;;;;10455159;28;20070;-48
2021/04/10 23:23:13;;;;;;;0.60;0.20;;;3.70;99.90;;;;;;10431798;28;20055;-48
2021/04/10 23:28:34;;;;;;;1.90;0.57;;;3.70;99.90;;;;;;10445866;28;20029;-48
2021/04/10 23:33:55;;;;;;;1.02;0.38;;;3.70;99.90;;;;;;10446503;28;20473;-47
2021/04/10 23:39:16;;;;;;;0.65;0.30;;;3.70;99.90;;;;;;10451587;28;20032;-48
2021/04/10 23:44:37;;;;;;;0.08;0.00;;;3.60;99.90;;;;;;10452688;28;20028;-48
2021/04/10 23:49:58;;;;;;;0.88;0.30;;;3.60;99.90;;;;;;10450316;28;20040;-47
2021/04/10 23:55:21;;;;;;;0.90;0.30;;;3.70;99.90;;;;;;10467455;28;20198;-48
